METAR AND TAF INFORMATION
METAR FOR LFRV
ADDS - METARS form results

(0045 UTC 23 October 2018)
Data provider http://aviationweather.gov/metar/data/
 
METAR text: LFRV 230030Z AUTO 04008KT 360V060 CAVOK 08/06 Q1035
Conditions at: LFRV (VANNES/MEUCON , FR) observed 0030 UTC 23 October 2018
Temperature: 8.0°C (46°F)
Dewpoint: 6.0°C (43°F) [RH = 87%]
Pressure (altimeter): 30.56 inches Hg (1035.0 mb)
Winds: from the NE (40 degrees) at 9 MPH (8 knots; 4.1 m/s)
Visibility: 6 or more miles (10+ km)
Ceiling: ceiling and visibility are OK
Clouds: unknown
Weather: no significant weather observed at this time

METAR text: LFRV 230000Z AUTO 03011KT CAVOK 08/06 Q1036
Conditions at: LFRV (VANNES/MEUCON , FR) observed 0000 UTC 23 October 2018
Temperature: 8.0°C (46°F)
Dewpoint: 6.0°C (43°F) [RH = 87%]
Pressure (altimeter): 30.59 inches Hg (1036.0 mb)
Winds: from the NNE (30 degrees) at 13 MPH (11 knots; 5.7 m/s)
Visibility: 6 or more miles (10+ km)
Ceiling: ceiling and visibility are OK
Clouds: unknown
Weather: no significant weather observed at this time

 AIRPORT MAP

 RUNWAY INFORMATION
Runway 04 Runway length 5020 ft Runway width 148 ft
Runway elevation 429 ft Runway displaced threshold 0 ft Runway heading 39
Runway 22 Runway length 5020 ft Runway width 148 ft
Runway elevation 437 ft Runway displaced threshold 0 ft Runway heading 219
Runway 08 Runway length 3363 ft Runway width 197 ft
Runway elevation 433 ft Runway displaced threshold 328 ft Runway heading 82
Runway 26 Runway length 3363 ft Runway width 197 ft
Runway elevation 440 ft Runway displaced threshold 0 ft Runway heading 262

 AIRPORT FREQUENCIES
Type TWR Name VANNES TWR Frequency 122.6 MHZ

 AIRPORT NEAR NAVIGATION AIDS



Powered by Virtual Airlines Manager [v2.6.2]